メインページ
METAR-TAF:

METAR-TAF

空港 :

Arlington Municipal Airport

アーリントン, ワシントン, アメリカ合衆国

緯度: 48-10N, 経度: 122-10W, 海抜: 42m

現時点の気象観測

当レポートは54分前の00:56(UTC)に作成
北西の風 5kt
気温 24°C
湿度 47%
気圧 1012 hPa
視程: 16.1km
晴天

METAR: KAWO 240056Z AUTO 31005KT 10SM CLR 24/12 A2987 RMK AO2 SLP118 T02390122 $

時間: 18:50 (01:50 UTC)


TAF: 見つかりません

4,000以上の空港の気象観測と天気予報(METAR報とTAF報)

利用可能な観測所は地図上に黄色い丸と赤い丸で示す。

丸の上にカーソルを重ねると観測所名を参照できる。

次にクリックすると気象観測と天気予報を参照できる。

マップの切り替え:黒色「×」印の緑ボタンをクリックして拡大、「-」印の緑ボタンをクリックして縮小、緑色の三角印をクリックして隣りの地図に切り替え


METAR-TAF: